createdAt,value
2022-12-07T00:01:21.271Z,4.87
2022-12-07T00:03:50.732Z,4.50
2022-12-07T00:06:19.863Z,4.50
2022-12-07T00:08:48.785Z,4.83
2022-12-07T00:11:19.625Z,4.67
2022-12-07T00:13:48.729Z,3.97
2022-12-07T00:16:18.414Z,4.17
2022-12-07T00:18:47.533Z,5.07
2022-12-07T00:21:17.221Z,4.40
2022-12-07T00:23:46.697Z,4.80
2022-12-07T00:26:16.271Z,4.50
2022-12-07T00:28:49.278Z,5.00
2022-12-07T00:31:19.350Z,4.60
2022-12-07T00:33:47.981Z,4.60
2022-12-07T00:36:21.862Z,5.57
2022-12-07T00:38:54.642Z,5.00
2022-12-07T00:41:24.220Z,5.37
2022-12-07T00:43:54.350Z,4.90
2022-12-07T00:46:23.382Z,4.70
2022-12-07T00:48:53.859Z,4.83
2022-12-07T00:51:23.894Z,5.20
2022-12-07T00:53:52.053Z,4.77
2022-12-07T00:56:21.866Z,4.50
2022-12-07T00:58:54.999Z,5.00
2022-12-07T01:01:23.411Z,5.27
2022-12-07T01:03:51.433Z,5.10
2022-12-07T01:06:20.872Z,4.97
2022-12-07T01:08:48.860Z,4.50
2022-12-07T01:11:19.336Z,5.20
2022-12-07T01:13:47.439Z,5.50
2022-12-07T01:16:18.694Z,5.17
2022-12-07T01:18:49.690Z,5.40
2022-12-07T01:21:21.695Z,5.00
2022-12-07T01:23:49.969Z,5.50
2022-12-07T01:26:19.913Z,4.93
2022-12-07T01:28:47.967Z,5.27
2022-12-07T01:31:19.350Z,5.10
2022-12-07T01:33:49.606Z,4.80
2022-12-07T01:36:19.485Z,5.27
2022-12-07T01:38:48.839Z,5.93
2022-12-07T01:41:17.944Z,4.63
2022-12-07T01:44:11.401Z,4.90
2022-12-07T01:46:41.323Z,4.60
2022-12-07T01:49:14.767Z,5.03
2022-12-07T01:51:44.168Z,4.23
2022-12-07T01:54:14.860Z,4.20
2022-12-07T01:56:47.467Z,4.37
2022-12-07T01:59:16.875Z,4.40
2022-12-07T02:01:46.331Z,3.83
2022-12-07T02:04:14.703Z,4.60
2022-12-07T02:06:44.995Z,3.30
2022-12-07T02:09:13.899Z,4.37
2022-12-07T02:11:43.021Z,4.13
2022-12-07T02:14:11.056Z,3.70
2022-12-07T02:16:49.356Z,3.60
2022-12-07T02:19:58.649Z,3.17
2022-12-07T02:22:56.830Z,4.07
2022-12-07T02:25:40.459Z,3.73
2022-12-07T02:28:14.656Z,3.40
2022-12-07T02:30:49.928Z,3.83
2022-12-07T02:33:21.747Z,3.53
2022-12-07T02:35:57.590Z,3.23
2022-12-07T02:38:29.695Z,3.33
2022-12-07T02:41:05.464Z,3.90
2022-12-07T02:43:37.808Z,3.70
2022-12-07T02:46:10.301Z,2.87
2022-12-07T02:48:40.617Z,3.20
2022-12-07T02:51:08.759Z,2.93
2022-12-07T02:53:39.026Z,3.07
2022-12-07T02:56:13.080Z,3.30
2022-12-07T02:58:51.375Z,3.67
2022-12-07T03:01:30.318Z,3.60
2022-12-07T03:04:11.143Z,3.33
2022-12-07T03:06:45.944Z,3.17
2022-12-07T03:09:20.671Z,3.17
2022-12-07T03:11:52.321Z,3.73
2022-12-07T03:14:25.636Z,3.50
2022-12-07T03:17:00.660Z,4.03
2022-12-07T03:19:29.609Z,3.87
2022-12-07T03:22:01.872Z,4.03
2022-12-07T03:24:33.193Z,3.73
2022-12-07T03:27:06.913Z,4.27
2022-12-07T03:29:40.302Z,4.60
2022-12-07T03:32:17.634Z,4.60
2022-12-07T03:34:52.059Z,4.10
2022-12-07T03:37:25.131Z,4.80
2022-12-07T03:40:02.237Z,4.03
2022-12-07T03:42:31.644Z,4.77
2022-12-07T03:44:59.793Z,4.17
2022-12-07T03:47:35.471Z,4.93
2022-12-07T03:50:09.964Z,4.77
2022-12-07T03:52:43.472Z,5.30
2022-12-07T03:55:16.991Z,4.67
2022-12-07T03:57:46.500Z,4.37
2022-12-07T04:00:15.827Z,5.43
2022-12-07T04:02:45.384Z,5.33
2022-12-07T04:05:13.937Z,5.00
2022-12-07T04:07:43.065Z,5.67
2022-12-07T04:10:12.080Z,5.60
2022-12-07T04:12:40.059Z,5.00
2022-12-07T04:15:09.643Z,6.50
2022-12-07T04:17:37.942Z,6.17
2022-12-07T04:20:08.721Z,5.57
2022-12-07T04:22:36.787Z,5.47
2022-12-07T04:25:05.149Z,6.20
2022-12-07T04:27:33.191Z,6.00
2022-12-07T04:30:01.713Z,5.60
2022-12-07T04:32:29.986Z,6.23
2022-12-07T04:34:58.041Z,6.10
2022-12-07T04:37:27.463Z,6.77
2022-12-07T04:39:55.509Z,7.50
2022-12-07T04:42:23.488Z,6.83
2022-12-07T04:44:51.893Z,7.50
2022-12-07T04:47:19.899Z,7.40
2022-12-07T04:49:47.882Z,6.53
2022-12-07T04:52:15.851Z,7.77
2022-12-07T04:54:45.222Z,7.37
2022-12-07T04:57:13.221Z,7.73
2022-12-07T04:59:45.471Z,8.07
2022-12-07T05:02:14.368Z,8.67
2022-12-07T05:04:42.369Z,8.27
2022-12-07T05:07:10.341Z,8.93
2022-12-07T05:09:38.329Z,8.73
2022-12-07T05:12:07.752Z,9.10
2022-12-07T05:14:35.755Z,9.10
2022-12-07T05:17:03.834Z,9.63
2022-12-07T05:19:31.885Z,9.43
2022-12-07T05:21:59.892Z,8.13
2022-12-07T05:24:27.894Z,8.80
2022-12-07T05:26:55.923Z,9.20
2022-12-07T05:29:25.265Z,9.77
2022-12-07T05:31:53.357Z,10.10
2022-12-07T05:34:21.353Z,9.57
2022-12-07T05:36:49.331Z,10.17
2022-12-07T05:39:17.464Z,9.73
2022-12-07T05:42:02.850Z,8.97
2022-12-07T05:44:32.189Z,9.50
2022-12-07T05:47:00.184Z,10.17
2022-12-07T05:49:28.153Z,9.83
2022-12-07T05:51:56.272Z,9.80
2022-12-07T05:54:24.299Z,9.37
2022-12-07T05:56:52.753Z,10.13
2022-12-07T05:59:25.810Z,10.30
2022-12-07T06:01:57.358Z,11.23
2022-12-07T06:04:26.740Z,8.83
2022-12-07T06:06:55.266Z,11.27
2022-12-07T06:09:24.868Z,10.27
2022-12-07T06:12:10.400Z,11.30
2022-12-07T06:14:38.496Z,10.33
2022-12-07T06:17:08.591Z,9.60
2022-12-07T06:19:36.806Z,10.90
2022-12-07T06:22:06.250Z,10.93
2022-12-07T06:24:35.078Z,11.17
2022-12-07T06:27:03.267Z,10.40
2022-12-07T06:29:31.252Z,10.67
2022-12-07T06:31:59.499Z,11.83
2022-12-07T06:34:29.260Z,11.00
2022-12-07T06:36:57.235Z,10.13
2022-12-07T06:39:27.912Z,10.90
2022-12-07T06:41:56.084Z,9.97
2022-12-07T06:44:24.723Z,10.73
2022-12-07T06:47:06.704Z,10.47
2022-12-07T06:49:42.010Z,9.97
2022-12-07T06:52:09.983Z,10.50
2022-12-07T06:54:37.954Z,9.97
2022-12-07T06:57:05.933Z,10.53
2022-12-07T06:59:33.914Z,10.50
2022-12-07T07:02:01.973Z,10.97
2022-12-07T07:04:29.997Z,10.67
2022-12-07T07:07:00.311Z,10.47
2022-12-07T07:09:28.551Z,11.10
2022-12-07T07:11:56.515Z,11.10
2022-12-07T07:14:24.487Z,11.03
2022-12-07T07:16:52.631Z,10.67
2022-12-07T07:19:20.838Z,10.37
2022-12-07T07:21:48.825Z,10.87
2022-12-07T07:24:18.310Z,11.90
2022-12-07T07:26:46.259Z,10.07
2022-12-07T07:29:14.454Z,13.27
2022-12-07T07:31:42.468Z,11.43
2022-12-07T07:34:10.545Z,11.07
2022-12-07T07:36:38.760Z,10.23
2022-12-07T07:39:07.001Z,10.93
2022-12-07T07:41:36.357Z,11.50
2022-12-07T07:44:04.448Z,10.73
2022-12-07T07:46:34.245Z,11.07
2022-12-07T07:49:02.381Z,10.47
2022-12-07T07:51:30.444Z,11.07
2022-12-07T07:53:58.444Z,12.30
2022-12-07T07:56:26.432Z,12.17
2022-12-07T07:58:55.883Z,10.73
2022-12-07T08:01:23.967Z,11.47
2022-12-07T08:03:51.985Z,11.23
2022-12-07T08:06:19.963Z,11.67
2022-12-07T08:08:48.036Z,11.37
2022-12-07T08:11:16.008Z,11.73
2022-12-07T08:13:44.233Z,11.83
2022-12-07T08:16:13.644Z,11.77
2022-12-07T08:18:42.760Z,12.07
2022-12-07T08:21:14.219Z,12.20
2022-12-07T08:23:42.281Z,12.13
2022-12-07T08:26:12.733Z,12.47
2022-12-07T08:28:41.159Z,12.10
2022-12-07T08:31:12.383Z,11.03
2022-12-07T08:33:41.940Z,11.80
2022-12-07T08:36:11.930Z,11.63
2022-12-07T08:38:44.972Z,11.93
2022-12-07T08:41:20.093Z,10.63
2022-12-07T08:43:48.033Z,12.60
2022-12-07T08:46:21.144Z,11.50
2022-12-07T08:48:54.246Z,11.80
2022-12-07T08:51:23.551Z,10.97
2022-12-07T08:53:53.109Z,10.63
2022-12-07T08:56:22.398Z,11.80
2022-12-07T08:58:50.838Z,10.07
2022-12-07T09:01:18.862Z,11.27
2022-12-07T09:03:46.861Z,11.57
2022-12-07T09:06:16.395Z,10.03
2022-12-07T09:08:48.665Z,10.57
2022-12-07T09:11:16.745Z,10.77
2022-12-07T09:13:44.757Z,10.23
2022-12-07T09:16:12.832Z,11.17
2022-12-07T09:18:40.996Z,10.10
2022-12-07T09:21:09.062Z,10.77
2022-12-07T09:23:38.581Z,10.63
2022-12-07T09:26:10.607Z,11.20
2022-12-07T09:28:39.073Z,10.40
2022-12-07T09:31:24.753Z,10.00
2022-12-07T09:33:56.679Z,10.00
2022-12-07T09:36:24.845Z,10.93
2022-12-07T09:38:54.164Z,10.83
2022-12-07T09:41:23.081Z,10.57
2022-12-07T09:43:51.276Z,11.33
2022-12-07T09:46:22.208Z,10.50
2022-12-07T09:48:51.875Z,10.33
2022-12-07T09:51:25.068Z,11.40
2022-12-07T09:53:56.383Z,11.47
2022-12-07T09:56:25.778Z,10.00
2022-12-07T09:59:00.087Z,10.63
2022-12-07T10:01:32.549Z,9.93
2022-12-07T10:04:07.903Z,9.93
2022-12-07T10:06:36.141Z,10.17
2022-12-07T10:09:11.706Z,9.83
2022-12-07T10:12:04.944Z,9.30
2022-12-07T10:15:05.588Z,8.43
2022-12-07T10:17:35.297Z,7.63
2022-12-07T10:20:25.200Z,8.70
2022-12-07T10:23:05.575Z,7.30
2022-12-07T10:25:36.765Z,8.20
2022-12-07T10:28:14.475Z,8.07
2022-12-07T10:30:50.981Z,7.53
2022-12-07T10:33:33.519Z,7.67
2022-12-07T10:36:02.750Z,6.53
2022-12-07T10:38:33.519Z,7.13
2022-12-07T10:41:10.200Z,6.37
2022-12-07T10:43:48.216Z,6.10
2022-12-07T10:46:41.492Z,6.53
2022-12-07T10:49:36.132Z,6.10
2022-12-07T10:52:11.959Z,6.37
2022-12-07T10:54:47.819Z,6.13
2022-12-07T10:57:42.434Z,6.33
2022-12-07T11:00:18.072Z,5.30
2022-12-07T11:03:03.316Z,6.10
2022-12-07T11:05:40.660Z,5.20
2022-12-07T11:08:20.267Z,5.50
2022-12-07T11:10:55.587Z,5.10
2022-12-07T11:13:39.226Z,5.00
2022-12-07T11:16:23.983Z,4.27
2022-12-07T11:19:01.417Z,4.33
2022-12-07T11:21:38.656Z,4.13
2022-12-07T11:24:12.271Z,4.27
2022-12-07T11:27:04.272Z,3.57
2022-12-07T11:29:48.663Z,3.83
2022-12-07T11:32:24.003Z,3.63
2022-12-07T11:35:01.626Z,2.80
2022-12-07T11:37:36.422Z,3.73
2022-12-07T11:40:18.616Z,3.00
2022-12-07T11:42:52.508Z,3.70
2022-12-07T11:45:26.402Z,3.07
2022-12-07T11:48:00.272Z,3.33
2022-12-07T11:50:35.073Z,2.90
2022-12-07T11:53:08.259Z,2.97
2022-12-07T11:55:44.226Z,2.90
2022-12-07T11:58:38.077Z,2.97
2022-12-07T12:01:17.309Z,2.43
2022-12-07T12:03:53.108Z,2.83
2022-12-07T12:06:22.596Z,3.13
2022-12-07T12:14:55.735Z,3.00
2022-12-07T12:18:02.116Z,2.60
2022-12-07T12:20:37.580Z,2.30
2022-12-07T12:23:14.029Z,2.57
2022-12-07T12:25:45.138Z,3.50
2022-12-07T12:28:26.143Z,3.00
2022-12-07T12:31:15.899Z,2.93
2022-12-07T12:36:26.857Z,2.67
2022-12-07T12:39:14.598Z,3.17
2022-12-07T12:42:20.435Z,3.40
2022-12-07T12:45:23.136Z,3.10
2022-12-07T12:47:56.479Z,2.83
2022-12-07T12:50:27.211Z,3.07
2022-12-07T12:53:22.763Z,2.57
2022-12-07T12:56:15.010Z,3.43
2022-12-07T12:58:46.710Z,3.23
2022-12-07T13:01:42.999Z,3.20
2022-12-07T13:04:40.927Z,3.37
2022-12-07T13:07:35.768Z,3.30
2022-12-07T13:10:06.627Z,2.63
2022-12-07T13:12:34.712Z,3.40
2022-12-07T13:15:04.388Z,3.03
2022-12-07T13:18:02.238Z,3.53
2022-12-07T13:20:51.474Z,3.77
2022-12-07T13:23:25.966Z,3.00
2022-12-07T13:26:00.362Z,3.20
2022-12-07T13:28:35.301Z,2.87
2022-12-07T13:31:14.022Z,3.20
2022-12-07T13:33:45.505Z,3.00
2022-12-07T13:36:20.758Z,3.33
2022-12-07T13:38:55.125Z,3.47
2022-12-07T13:41:26.190Z,4.83
2022-12-07T13:44:00.977Z,3.30
2022-12-07T13:46:43.209Z,3.70
2022-12-07T13:49:23.530Z,3.60
2022-12-07T13:51:52.104Z,3.23
2022-12-07T13:54:20.675Z,3.00
2022-12-07T13:56:53.297Z,2.90
2022-12-07T13:59:23.556Z,2.90
2022-12-07T14:01:53.203Z,2.90
2022-12-07T14:04:33.351Z,2.47
2022-12-07T14:07:02.765Z,2.80
2022-12-07T14:09:31.967Z,3.20
2022-12-07T14:12:07.773Z,2.47
2022-12-07T14:14:36.980Z,2.20
2022-12-07T14:17:14.733Z,2.43
2022-12-07T14:19:48.968Z,2.33
2022-12-07T14:22:40.611Z,2.13
2022-12-07T14:25:21.248Z,2.50
2022-12-07T14:27:57.540Z,2.93
2022-12-07T14:30:27.969Z,2.50
2022-12-07T14:32:59.264Z,2.47
2022-12-07T14:35:27.360Z,2.67
2022-12-07T14:37:55.468Z,2.10
2022-12-07T14:40:25.905Z,2.00
2022-12-07T14:42:58.724Z,2.40
2022-12-07T14:45:26.773Z,2.20
2022-12-07T14:53:38.817Z,2.07
2022-12-07T14:56:07.473Z,2.27
2022-12-07T14:58:36.821Z,2.67
2022-12-07T15:01:05.376Z,2.10
2022-12-07T15:03:35.549Z,1.80
2022-12-07T15:06:05.452Z,2.13
2022-12-07T15:08:33.474Z,2.20
2022-12-07T15:11:01.502Z,2.27
2022-12-07T15:13:47.047Z,2.17
2022-12-07T15:16:22.015Z,2.40
2022-12-07T15:19:19.136Z,3.07
2022-12-07T15:21:38.086Z,2.80
2022-12-07T15:24:06.629Z,2.40
2022-12-07T15:26:34.618Z,2.73
2022-12-07T15:29:02.649Z,2.90
2022-12-07T15:31:54.742Z,3.30
2022-12-07T15:34:20.061Z,3.40
2022-12-07T15:36:48.067Z,3.23
2022-12-07T15:39:16.032Z,3.37
2022-12-07T15:41:44.034Z,3.40
2022-12-07T15:44:31.509Z,3.33
2022-12-07T15:47:01.954Z,3.03
2022-12-07T15:49:30.054Z,3.70
2022-12-07T15:51:58.119Z,3.73
2022-12-07T15:54:28.074Z,3.90
2022-12-07T15:56:56.703Z,4.00
2022-12-07T15:59:25.730Z,3.70
2022-12-07T16:01:53.913Z,3.77
2022-12-07T16:04:23.431Z,3.20
2022-12-07T16:06:52.217Z,4.50
2022-12-07T16:09:20.549Z,3.73
2022-12-07T16:11:48.549Z,4.07
2022-12-07T16:14:16.511Z,4.33
2022-12-07T16:16:44.680Z,4.47
2022-12-07T16:19:13.094Z,4.17
2022-12-07T16:21:43.246Z,4.57
2022-12-07T16:24:11.431Z,5.23
2022-12-07T16:26:40.871Z,5.10
2022-12-07T16:29:13.124Z,4.47
2022-12-07T16:31:41.296Z,5.00
2022-12-07T16:34:09.642Z,4.90
2022-12-07T16:37:03.179Z,4.63
2022-12-07T16:39:27.107Z,5.23
2022-12-07T16:41:55.111Z,4.67
2022-12-07T16:44:23.351Z,4.03
2022-12-07T16:46:51.503Z,4.77
2022-12-07T16:49:20.044Z,5.10
2022-12-07T16:52:08.704Z,4.80
2022-12-07T16:54:38.501Z,4.83
2022-12-07T16:57:06.512Z,4.60
2022-12-07T16:59:34.699Z,4.27
2022-12-07T17:02:03.081Z,4.47
2022-12-07T17:04:31.220Z,4.40
2022-12-07T17:06:59.989Z,4.37
2022-12-07T17:09:29.105Z,4.67
2022-12-07T17:11:58.513Z,4.60
2022-12-07T17:14:44.244Z,3.80
2022-12-07T17:17:12.258Z,3.97
2022-12-07T17:19:41.347Z,4.33
2022-12-07T17:22:12.401Z,3.60
2022-12-07T17:24:40.922Z,3.37
2022-12-07T17:27:10.294Z,3.87
2022-12-07T17:29:38.705Z,5.73
2022-12-07T17:32:07.050Z,3.63
2022-12-07T17:34:35.227Z,5.77
2022-12-07T17:37:03.241Z,7.97
2022-12-07T17:39:31.609Z,3.87
2022-12-07T17:42:17.101Z,4.53
2022-12-07T17:44:46.448Z,4.40
2022-12-07T17:47:16.242Z,3.07
2022-12-07T17:49:46.608Z,3.93
2022-12-07T17:52:32.392Z,3.37
2022-12-07T17:55:00.657Z,3.27
2022-12-07T17:57:28.934Z,3.43
2022-12-07T17:59:59.030Z,3.37
2022-12-07T18:02:27.214Z,3.80
2022-12-07T18:04:55.361Z,3.40
2022-12-07T18:07:23.438Z,3.67
2022-12-07T18:09:51.408Z,3.63
2022-12-07T18:12:19.468Z,3.23
2022-12-07T18:14:48.655Z,4.57
2022-12-07T18:17:18.002Z,4.00
2022-12-07T18:19:46.093Z,4.60
2022-12-07T18:22:14.145Z,4.07
2022-12-07T18:24:42.124Z,3.97
2022-12-07T18:27:11.190Z,3.90
2022-12-07T18:29:39.146Z,3.90
2022-12-07T18:32:07.235Z,3.40
2022-12-07T18:34:36.618Z,3.47
2022-12-07T18:37:04.683Z,3.67
2022-12-07T18:39:34.245Z,4.13
2022-12-07T18:42:02.591Z,3.77
2022-12-07T18:44:30.731Z,4.10
2022-12-07T18:46:58.732Z,4.20
2022-12-07T18:49:26.748Z,3.90
2022-12-07T18:51:56.094Z,4.40
2022-12-07T18:54:24.135Z,4.23
2022-12-07T18:56:52.209Z,4.27
2022-12-07T18:59:37.784Z,3.73
2022-12-07T19:02:05.848Z,4.53
2022-12-07T19:04:33.837Z,5.00
2022-12-07T19:07:03.214Z,4.30
2022-12-07T19:09:31.219Z,5.17
2022-12-07T19:12:03.259Z,4.00
2022-12-07T19:14:33.068Z,4.70
2022-12-07T19:17:03.213Z,4.23
2022-12-07T19:19:33.894Z,3.90
2022-12-07T19:22:04.017Z,3.43
2022-12-07T19:24:32.390Z,3.77
2022-12-07T19:27:00.712Z,3.50
2022-12-07T19:29:31.219Z,3.60
2022-12-07T19:31:59.622Z,3.70
2022-12-07T19:34:27.881Z,3.13
2022-12-07T19:36:55.958Z,4.10
2022-12-07T19:39:25.496Z,3.90
2022-12-07T19:41:53.546Z,3.63
2022-12-07T19:44:25.278Z,3.97
2022-12-07T19:46:58.398Z,3.90
2022-12-07T19:49:31.819Z,3.90
2022-12-07T19:52:02.578Z,4.00
2022-12-07T19:54:32.905Z,4.23
2022-12-07T19:57:00.953Z,4.40
2022-12-07T19:59:30.847Z,4.03
2022-12-07T20:01:59.230Z,4.17
2022-12-07T20:04:30.305Z,4.60
2022-12-07T20:07:00.297Z,4.30
2022-12-07T20:09:28.685Z,4.23
2022-12-07T20:12:15.422Z,4.37
2022-12-07T20:14:43.421Z,4.17
2022-12-07T20:17:11.578Z,4.90
2022-12-07T20:19:40.437Z,4.17
2022-12-07T20:22:08.545Z,4.47
2022-12-07T20:24:36.745Z,4.50
2022-12-07T20:27:07.127Z,5.20
2022-12-07T20:29:35.712Z,4.20
2022-12-07T20:32:04.360Z,4.33
2022-12-07T20:34:32.486Z,4.57
2022-12-07T20:37:00.665Z,4.50
2022-12-07T20:39:29.358Z,4.63
2022-12-07T20:42:15.036Z,4.40
2022-12-07T20:44:44.417Z,4.80
2022-12-07T20:47:12.420Z,4.43
2022-12-07T20:49:40.412Z,4.67
2022-12-07T20:52:08.438Z,4.70
2022-12-07T20:54:37.334Z,4.50
2022-12-07T20:57:05.432Z,4.90
2022-12-07T20:59:38.155Z,5.47
2022-12-07T21:02:12.729Z,4.90
2022-12-07T21:04:40.879Z,5.30
2022-12-07T21:07:09.021Z,4.90
2022-12-07T21:09:37.064Z,5.33
2022-12-07T21:12:05.621Z,4.90
2022-12-07T21:14:33.653Z,5.93
2022-12-07T21:17:01.728Z,5.33
2022-12-07T21:19:31.100Z,5.90
2022-12-07T21:21:59.126Z,5.43
2022-12-07T21:24:27.182Z,5.33
2022-12-07T21:26:55.156Z,6.20
2022-12-07T21:29:34.651Z,5.47
2022-12-07T21:32:10.547Z,5.43
2022-12-07T21:34:40.008Z,5.27
2022-12-07T21:37:07.990Z,5.23
2022-12-07T21:39:36.031Z,4.60
2022-12-07T21:42:04.092Z,5.07
2022-12-07T21:44:32.104Z,4.33
2022-12-07T21:47:00.858Z,4.73
2022-12-07T21:49:28.908Z,4.30
2022-12-07T21:51:58.255Z,4.40
2022-12-07T21:54:26.443Z,4.10
2022-12-07T21:56:54.462Z,4.00
2022-12-07T21:59:22.479Z,3.60
2022-12-07T22:01:51.164Z,3.83
2022-12-07T22:04:21.857Z,3.50
2022-12-07T22:06:50.810Z,3.00
2022-12-07T22:09:23.159Z,2.63
2022-12-07T22:11:51.449Z,2.87
2022-12-07T22:14:37.389Z,2.53
2022-12-07T22:17:05.458Z,2.43
2022-12-07T22:19:33.476Z,2.77
2022-12-07T22:22:01.475Z,2.63
2022-12-07T22:24:30.947Z,2.10
2022-12-07T22:26:58.921Z,2.30
2022-12-07T22:29:26.971Z,2.07
2022-12-07T22:31:55.035Z,2.17
2022-12-07T22:34:23.203Z,2.17
2022-12-07T22:36:51.289Z,2.13
2022-12-07T22:39:19.461Z,1.90
2022-12-07T22:41:49.006Z,1.90
2022-12-07T22:44:17.101Z,1.60
2022-12-07T22:46:45.169Z,1.80
2022-12-07T22:49:13.706Z,2.00
2022-12-07T22:51:44.797Z,2.00
2022-12-07T22:54:16.697Z,1.77
2022-12-07T22:56:45.603Z,2.50
2022-12-07T22:59:15.638Z,1.60
2022-12-07T23:01:43.847Z,1.70
2022-12-07T23:04:12.006Z,1.70
2022-12-07T23:06:40.353Z,1.87
2022-12-07T23:09:11.207Z,1.50
2022-12-07T23:11:58.334Z,1.70
2022-12-07T23:14:30.762Z,1.40
2022-12-07T23:16:58.964Z,1.50
2022-12-07T23:19:27.963Z,1.50
2022-12-07T23:21:56.285Z,1.43
2022-12-07T23:24:24.304Z,1.53
2022-12-07T23:26:52.488Z,1.50
2022-12-07T23:29:20.542Z,1.23
2022-12-07T23:31:51.165Z,1.13
2022-12-07T23:34:19.372Z,1.70
2022-12-07T23:36:47.363Z,1.40
2022-12-07T23:39:15.372Z,1.50
2022-12-07T23:41:43.479Z,1.30
2022-12-07T23:44:12.116Z,1.60
2022-12-07T23:46:40.247Z,1.53
2022-12-07T23:49:10.026Z,1.73
2022-12-07T23:51:38.118Z,1.33
2022-12-07T23:54:06.255Z,1.60
2022-12-07T23:56:35.101Z,1.27
2022-12-07T23:59:03.683Z,1.40
